createdAt,value
2018-12-13T00:01:36.575Z,7.28
2018-12-13T00:03:39.471Z,3.95
2018-12-13T00:05:43.156Z,5.05
2018-12-13T00:07:46.059Z,3.87
2018-12-13T00:09:48.952Z,5.40
2018-12-13T00:11:51.870Z,4.43
2018-12-13T00:13:54.926Z,3.97
2018-12-13T00:15:57.796Z,5.35
2018-12-13T00:18:00.703Z,3.15
2018-12-13T00:20:03.596Z,3.15
2018-12-13T00:22:06.571Z,3.10
2018-12-13T00:24:09.465Z,8.32
2018-12-13T00:26:12.491Z,4.10
2018-12-13T00:28:16.164Z,6.22
2018-12-13T00:30:19.049Z,5.47
2018-12-13T00:32:21.924Z,4.20
2018-12-13T00:34:24.839Z,4.23
2018-12-13T00:36:27.724Z,3.03
2018-12-13T00:38:30.617Z,4.03
2018-12-13T00:40:33.853Z,4.60
2018-12-13T00:42:36.737Z,5.10
2018-12-13T00:44:39.613Z,9.52
2018-12-13T00:46:42.502Z,2.72
2018-12-13T00:48:45.371Z,4.62
2018-12-13T00:50:48.243Z,4.72
2018-12-13T00:52:51.143Z,4.20
2018-12-13T00:54:54.004Z,4.32
2018-12-13T00:56:56.879Z,4.63
2018-12-13T00:58:59.779Z,9.75
2018-12-13T01:01:02.667Z,3.37
2018-12-13T01:03:05.545Z,5.07
2018-12-13T01:05:08.508Z,4.35
2018-12-13T01:07:11.385Z,6.00
2018-12-13T01:09:14.263Z,3.92
2018-12-13T01:11:17.151Z,4.70
2018-12-13T01:13:20.064Z,5.00
2018-12-13T01:15:22.907Z,6.90
2018-12-13T01:17:25.820Z,7.25
2018-12-13T01:19:29.484Z,3.55
2018-12-13T01:21:32.357Z,4.30
2018-12-13T01:23:35.254Z,4.90
2018-12-13T01:25:38.121Z,5.30
2018-12-13T01:27:40.991Z,4.80
2018-12-13T01:29:43.889Z,4.80
2018-12-13T01:31:46.788Z,2.65
2018-12-13T01:33:49.641Z,3.47
2018-12-13T01:35:52.875Z,11.70
2018-12-13T01:37:55.760Z,3.80
2018-12-13T01:39:59.407Z,5.03
2018-12-13T01:42:02.299Z,6.05
2018-12-13T01:44:05.180Z,3.33
2018-12-13T01:46:08.093Z,7.85
2018-12-13T01:48:10.995Z,7.30
2018-12-13T01:50:14.618Z,3.90
2018-12-13T01:52:17.614Z,6.27
2018-12-13T01:54:21.341Z,3.87
2018-12-13T01:56:24.207Z,4.37
2018-12-13T01:58:27.119Z,7.80
2018-12-13T02:00:29.998Z,4.07
2018-12-13T02:02:32.887Z,4.20
2018-12-13T02:04:35.772Z,6.32
2018-12-13T02:06:39.420Z,4.68
2018-12-13T02:08:42.302Z,3.85
2018-12-13T02:10:45.185Z,3.83
2018-12-13T02:12:48.083Z,9.68
2018-12-13T02:14:50.951Z,3.90
2018-12-13T02:16:53.943Z,5.37
2018-12-13T02:18:56.831Z,4.95
2018-12-13T02:20:59.719Z,4.53
2018-12-13T02:23:02.615Z,4.28
2018-12-13T02:25:06.259Z,3.95
2018-12-13T02:27:09.227Z,4.78
2018-12-13T02:29:12.128Z,3.30
2018-12-13T02:31:15.000Z,4.85
2018-12-13T02:33:17.873Z,5.00
2018-12-13T02:35:20.777Z,4.00
2018-12-13T02:37:23.643Z,7.00
2018-12-13T02:39:26.540Z,3.43
2018-12-13T02:41:29.538Z,5.00
2018-12-13T02:43:32.420Z,5.03
2018-12-13T02:45:35.360Z,4.05
2018-12-13T02:47:38.593Z,6.28
2018-12-13T02:49:41.516Z,5.18
2018-12-13T02:51:45.192Z,5.20
2018-12-13T02:53:48.139Z,3.95
2018-12-13T02:55:51.078Z,4.65
2018-12-13T02:57:54.748Z,6.40
2018-12-13T02:59:57.704Z,7.85
2018-12-13T03:02:00.616Z,5.07
2018-12-13T03:04:03.543Z,5.50
2018-12-13T03:06:06.494Z,4.97
2018-12-13T03:08:09.404Z,7.60
2018-12-13T03:10:12.333Z,9.23
2018-12-13T03:12:15.475Z,5.85
2018-12-13T03:14:18.407Z,6.53
2018-12-13T03:16:21.323Z,3.67
2018-12-13T03:18:25.243Z,4.78
2018-12-13T03:20:28.151Z,5.40
2018-12-13T03:22:31.060Z,8.07
2018-12-13T03:24:33.990Z,6.65
2018-12-13T03:26:36.980Z,4.35
2018-12-13T03:28:39.897Z,9.10
2018-12-13T03:30:42.849Z,7.03
2018-12-13T03:32:45.820Z,11.30
2018-12-13T03:34:49.207Z,5.90
2018-12-13T03:36:51.681Z,3.35
2018-12-13T03:38:54.600Z,6.93
2018-12-13T03:40:57.525Z,6.85
2018-12-13T03:43:01.247Z,6.30
2018-12-13T03:45:04.156Z,7.05
2018-12-13T03:47:07.090Z,6.23
2018-12-13T03:49:10.835Z,8.13
2018-12-13T03:51:13.752Z,8.27
2018-12-13T03:53:16.670Z,5.70
2018-12-13T03:55:19.613Z,5.47
2018-12-13T03:57:22.553Z,5.65
2018-12-13T03:59:25.484Z,5.45
2018-12-13T04:01:28.428Z,5.10
2018-12-13T04:03:31.346Z,7.20
2018-12-13T04:05:34.260Z,5.85
2018-12-13T04:07:37.982Z,6.75
2018-12-13T04:09:41.719Z,8.38
2018-12-13T04:11:44.665Z,5.22
2018-12-13T04:13:47.730Z,9.25
2018-12-13T04:15:50.656Z,7.22
2018-12-13T04:17:53.643Z,8.07
2018-12-13T04:19:57.377Z,8.15
2018-12-13T04:22:01.051Z,6.18
2018-12-13T04:24:03.989Z,6.90
2018-12-13T04:26:06.941Z,7.05
2018-12-13T04:28:10.745Z,9.60
2018-12-13T04:30:14.443Z,6.18
2018-12-13T04:32:18.156Z,8.88
2018-12-13T04:34:21.071Z,8.73
2018-12-13T04:36:23.984Z,9.00
2018-12-13T04:38:26.931Z,9.80
2018-12-13T04:40:29.852Z,7.60
2018-12-13T04:42:32.768Z,11.75
2018-12-13T04:44:35.732Z,9.77
2018-12-13T04:46:39.477Z,9.02
2018-12-13T04:48:43.107Z,7.17
2018-12-13T04:50:46.129Z,8.63
2018-12-13T04:52:49.863Z,7.03
2018-12-13T04:54:52.846Z,7.32
2018-12-13T04:56:55.902Z,9.25
2018-12-13T04:58:58.822Z,7.20
2018-12-13T05:01:01.750Z,6.68
2018-12-13T05:03:05.553Z,5.43
2018-12-13T05:05:09.254Z,7.00
2018-12-13T05:07:13.053Z,8.60
2018-12-13T05:09:16.860Z,8.43
2018-12-13T05:11:20.555Z,7.18
2018-12-13T05:13:24.239Z,7.87
2018-12-13T05:15:27.199Z,10.07
2018-12-13T05:17:30.222Z,14.52
2018-12-13T05:19:33.141Z,10.82
2018-12-13T05:21:36.316Z,7.30
2018-12-13T05:23:39.239Z,9.68
2018-12-13T05:25:42.179Z,7.50
2018-12-13T05:27:45.215Z,11.43
2018-12-13T05:29:48.132Z,9.27
2018-12-13T05:31:51.090Z,7.28
2018-12-13T05:33:54.024Z,7.53
2018-12-13T05:35:57.023Z,12.18
2018-12-13T05:37:59.975Z,8.30
2018-12-13T05:40:03.038Z,9.25
2018-12-13T05:42:06.021Z,9.02
2018-12-13T05:44:09.715Z,8.50
2018-12-13T05:46:13.446Z,8.30
2018-12-13T05:48:16.372Z,10.38
2018-12-13T05:50:19.313Z,10.10
2018-12-13T05:52:22.572Z,9.77
2018-12-13T05:54:26.238Z,7.82
2018-12-13T05:56:29.150Z,8.27
2018-12-13T05:58:32.935Z,10.00
2018-12-13T06:00:35.941Z,6.00
2018-12-13T06:02:39.615Z,7.28
2018-12-13T06:04:42.651Z,9.15
2018-12-13T06:06:45.578Z,14.40
2018-12-13T06:08:48.640Z,5.87
2018-12-13T06:10:51.611Z,13.98
2018-12-13T06:12:54.518Z,9.57
2018-12-13T06:14:57.527Z,8.32
2018-12-13T06:17:01.330Z,10.40
2018-12-13T06:19:05.022Z,15.73
2018-12-13T06:21:11.858Z,10.60
2018-12-13T06:23:11.107Z,11.70
2018-12-13T06:25:14.811Z,9.23
2018-12-13T06:27:18.510Z,8.27
2018-12-13T06:29:22.243Z,11.50
2018-12-13T06:31:25.199Z,10.65
2018-12-13T06:33:28.877Z,9.20
2018-12-13T06:35:31.991Z,12.80
2018-12-13T06:37:34.950Z,7.03
2018-12-13T06:39:37.883Z,10.07
2018-12-13T06:41:40.915Z,9.73
2018-12-13T06:43:44.616Z,7.60
2018-12-13T06:45:48.291Z,9.98
2018-12-13T06:47:51.236Z,7.25
2018-12-13T06:49:54.162Z,8.65
2018-12-13T06:51:57.092Z,13.13
2018-12-13T06:54:00.114Z,7.03
2018-12-13T06:56:03.137Z,11.20
2018-12-13T06:58:06.147Z,11.55
2018-12-13T07:00:09.085Z,10.30
2018-12-13T07:02:11.992Z,7.80
2018-12-13T07:04:15.786Z,9.90
2018-12-13T07:06:19.603Z,8.50
2018-12-13T07:08:22.523Z,10.20
2018-12-13T07:10:25.454Z,10.68
2018-12-13T07:12:29.167Z,10.27
2018-12-13T07:14:32.095Z,12.43
2018-12-13T07:16:35.119Z,9.82
2018-12-13T07:18:38.843Z,8.95
2018-12-13T07:20:41.751Z,8.10
2018-12-13T07:22:44.667Z,11.15
2018-12-13T07:24:47.623Z,9.30
2018-12-13T07:26:50.584Z,10.60
2018-12-13T07:28:53.498Z,9.95
2018-12-13T07:30:56.440Z,8.38
2018-12-13T07:33:00.151Z,13.53
2018-12-13T07:35:03.079Z,9.93
2018-12-13T07:37:06.960Z,8.23
2018-12-13T07:39:09.896Z,9.00
2018-12-13T07:41:13.578Z,13.23
2018-12-13T07:43:17.303Z,7.97
2018-12-13T07:45:21.060Z,8.07
2018-12-13T07:47:23.987Z,11.10
2018-12-13T07:49:27.028Z,11.40
2018-12-13T07:51:29.955Z,11.32
2018-12-13T07:53:32.893Z,13.82
2018-12-13T07:55:36.736Z,11.48
2018-12-13T07:57:39.686Z,11.27
2018-12-13T07:59:43.371Z,19.23
2018-12-13T08:01:46.335Z,12.83
2018-12-13T08:03:49.360Z,13.50
2018-12-13T08:05:53.035Z,12.07
2018-12-13T08:07:56.790Z,12.93
2018-12-13T08:09:59.711Z,13.32
2018-12-13T08:12:02.729Z,15.43
2018-12-13T08:14:06.539Z,13.55
2018-12-13T08:16:10.247Z,25.92
2018-12-13T08:18:13.169Z,14.68
2018-12-13T08:20:16.107Z,14.55
2018-12-13T08:22:19.023Z,15.10
2018-12-13T08:24:21.957Z,21.50
2018-12-13T08:26:24.970Z,15.93
2018-12-13T08:28:27.901Z,14.18
2018-12-13T08:30:30.825Z,17.37
2018-12-13T08:32:33.888Z,17.70
2018-12-13T08:34:37.588Z,14.77
2018-12-13T08:36:41.283Z,15.27
2018-12-13T08:38:45.090Z,14.75
2018-12-13T08:40:48.771Z,13.07
2018-12-13T08:42:51.692Z,14.05
2018-12-13T08:44:54.703Z,14.02
2018-12-13T08:46:57.628Z,14.60
2018-12-13T08:49:01.318Z,20.70
2018-12-13T08:51:05.141Z,12.88
2018-12-13T08:53:08.830Z,12.32
2018-12-13T08:55:12.515Z,21.45
2018-12-13T08:57:17.062Z,15.55
2018-12-13T08:59:20.008Z,15.55
2018-12-13T09:01:22.935Z,29.50
2018-12-13T09:03:26.789Z,18.00
2018-12-13T09:05:29.809Z,16.83
2018-12-13T09:07:33.487Z,18.50
2018-12-13T09:09:36.523Z,11.33
2018-12-13T09:11:40.516Z,16.40
2018-12-13T09:13:44.279Z,14.35
2018-12-13T09:15:47.319Z,14.13
2018-12-13T09:17:50.271Z,15.13
2018-12-13T09:19:53.964Z,16.67
2018-12-13T09:21:57.172Z,12.50
2018-12-13T09:24:00.115Z,18.35
2018-12-13T09:26:03.043Z,15.23
2018-12-13T09:28:05.988Z,14.93
2018-12-13T09:30:08.959Z,16.30
2018-12-13T09:32:12.256Z,13.50
2018-12-13T09:34:16.103Z,22.65
2018-12-13T09:36:19.027Z,17.73
2018-12-13T09:38:21.956Z,19.60
2018-12-13T09:40:24.914Z,18.17
2018-12-13T09:42:27.843Z,13.93
2018-12-13T09:44:30.780Z,16.02
2018-12-13T09:46:34.596Z,15.70
2018-12-13T09:48:38.308Z,15.20
2018-12-13T09:50:41.229Z,13.40
2018-12-13T09:52:44.278Z,13.93
2018-12-13T09:54:48.050Z,21.27
2018-12-13T09:56:52.426Z,16.12
2018-12-13T09:58:55.385Z,14.45
2018-12-13T10:00:58.299Z,11.20
2018-12-13T10:03:01.238Z,15.38
2018-12-13T10:05:04.967Z,14.63
2018-12-13T10:07:07.892Z,21.55
2018-12-13T10:09:11.608Z,13.25
2018-12-13T10:11:15.319Z,17.42
2018-12-13T10:13:18.260Z,13.95
2018-12-13T10:15:21.180Z,18.85
2018-12-13T10:17:24.208Z,13.27
2018-12-13T10:19:27.134Z,16.60
2018-12-13T10:21:30.940Z,13.05
2018-12-13T10:23:35.109Z,16.17
2018-12-13T10:25:38.131Z,11.60
2018-12-13T10:27:41.810Z,19.52
2018-12-13T10:29:44.779Z,14.80
2018-12-13T10:31:47.704Z,14.73
2018-12-13T10:33:51.556Z,17.33
2018-12-13T10:35:54.576Z,12.73
2018-12-13T10:37:57.565Z,14.15
2018-12-13T10:40:01.264Z,12.68
2018-12-13T10:42:05.025Z,21.75
2018-12-13T10:44:07.946Z,15.82
2018-12-13T10:46:11.630Z,14.40
2018-12-13T10:48:14.613Z,15.38
2018-12-13T10:50:17.534Z,16.02
2018-12-13T10:52:20.463Z,13.20
2018-12-13T10:54:23.522Z,23.45
2018-12-13T10:56:26.447Z,14.18
2018-12-13T10:58:30.203Z,14.52
2018-12-13T11:00:37.012Z,16.48
2018-12-13T11:02:51.714Z,17.48
2018-12-13T11:04:54.675Z,18.10
2018-12-13T11:06:58.388Z,19.02
2018-12-13T11:09:02.097Z,12.30
2018-12-13T11:11:05.017Z,20.60
2018-12-13T11:13:07.963Z,16.43
2018-12-13T11:15:10.999Z,14.25
2018-12-13T11:17:13.915Z,16.33
2018-12-13T11:19:17.711Z,14.27
2018-12-13T11:21:21.406Z,15.20
2018-12-13T11:23:25.095Z,16.95
2018-12-13T11:25:28.836Z,15.63
2018-12-13T11:27:57.702Z,14.70
2018-12-13T11:30:22.096Z,17.75
2018-12-13T11:32:25.131Z,13.50
2018-12-13T11:34:28.066Z,16.33
2018-12-13T11:36:31.079Z,16.55
2018-12-13T11:38:35.597Z,19.90
2018-12-13T11:40:38.507Z,13.30
2018-12-13T11:42:41.431Z,15.27
2018-12-13T11:44:44.617Z,15.68
2018-12-13T11:46:47.535Z,19.62
2018-12-13T11:48:50.564Z,16.45
2018-12-13T11:50:54.366Z,20.92
2018-12-13T11:52:58.044Z,21.05
2018-12-13T11:55:00.985Z,15.68
2018-12-13T11:57:04.075Z,15.65
2018-12-13T11:59:06.991Z,17.15
2018-12-13T12:01:09.922Z,11.80
2018-12-13T12:03:13.084Z,12.27
2018-12-13T12:05:16.767Z,17.98
2018-12-13T12:07:19.687Z,18.87
2018-12-13T12:09:22.743Z,20.15
2018-12-13T12:11:26.441Z,20.40
2018-12-13T12:13:30.133Z,17.90
2018-12-13T12:15:33.079Z,17.10
2018-12-13T12:17:36.013Z,16.43
2018-12-13T12:19:39.816Z,19.00
2018-12-13T12:21:43.579Z,11.53
2018-12-13T12:23:46.588Z,16.20
2018-12-13T12:25:50.291Z,15.00
2018-12-13T12:27:53.343Z,15.07
2018-12-13T12:29:56.264Z,14.07
2018-12-13T12:31:59.967Z,16.10
2018-12-13T12:34:03.759Z,15.55
2018-12-13T12:36:07.469Z,11.85
2018-12-13T12:38:11.171Z,14.52
2018-12-13T12:40:14.996Z,13.90
2018-12-13T12:42:17.918Z,16.52
2018-12-13T12:44:20.940Z,18.52
2018-12-13T12:46:24.643Z,11.88
2018-12-13T12:48:27.567Z,11.75
2018-12-13T12:50:30.487Z,14.70
2018-12-13T12:52:33.486Z,14.18
2018-12-13T12:54:36.406Z,13.32
2018-12-13T12:56:39.327Z,13.05
2018-12-13T12:58:43.059Z,22.73
2018-12-13T13:00:45.979Z,13.75
2018-12-13T13:02:48.909Z,15.50
2018-12-13T13:04:52.662Z,12.60
2018-12-13T13:06:56.369Z,14.32
2018-12-13T13:08:59.298Z,16.57
2018-12-13T13:11:03.036Z,10.97
2018-12-13T13:13:05.946Z,17.03
2018-12-13T13:15:08.962Z,13.77
2018-12-13T13:17:12.680Z,17.50
2018-12-13T13:19:15.605Z,20.43
2018-12-13T13:21:18.635Z,12.20
2018-12-13T13:23:21.634Z,14.60
2018-12-13T13:25:24.666Z,18.45
2018-12-13T13:27:27.596Z,15.07
2018-12-13T13:29:30.530Z,11.60
2018-12-13T13:31:33.459Z,13.95
2018-12-13T13:33:36.399Z,14.80
2018-12-13T13:35:39.369Z,14.57
2018-12-13T13:37:42.286Z,9.25
2018-12-13T13:39:45.970Z,18.77
2018-12-13T13:41:49.795Z,12.65
2018-12-13T13:43:53.474Z,14.38
2018-12-13T13:45:56.409Z,16.87
2018-12-13T13:47:59.455Z,13.50
2018-12-13T13:50:03.154Z,13.13
2018-12-13T13:52:06.839Z,14.35
2018-12-13T13:54:10.596Z,13.32
2018-12-13T13:56:13.532Z,15.70
2018-12-13T13:58:16.446Z,12.55
2018-12-13T14:00:19.429Z,11.48
2018-12-13T14:02:22.351Z,15.98
2018-12-13T14:04:25.266Z,15.00
2018-12-13T14:06:29.081Z,11.70
2018-12-13T14:08:32.907Z,13.47
2018-12-13T14:10:35.827Z,15.50
2018-12-13T14:12:38.867Z,14.73
2018-12-13T14:14:41.794Z,12.87
2018-12-13T14:16:45.490Z,13.83
2018-12-13T14:18:48.465Z,11.27
2018-12-13T14:20:51.379Z,9.20
2018-12-13T14:22:55.132Z,19.93
2018-12-13T14:24:58.169Z,16.90
2018-12-13T14:27:01.971Z,12.50
2018-12-13T14:29:04.951Z,8.55
2018-12-13T14:31:08.671Z,11.50
2018-12-13T14:33:11.586Z,17.00
2018-12-13T14:35:14.619Z,11.63
2018-12-13T14:37:18.351Z,9.98
2018-12-13T14:39:21.277Z,10.98
2018-12-13T14:41:24.286Z,11.15
2018-12-13T14:43:28.011Z,12.35
2018-12-13T14:45:30.933Z,12.70
2018-12-13T14:47:33.848Z,10.98
2018-12-13T14:49:37.583Z,10.25
2018-12-13T14:51:40.635Z,9.77
2018-12-13T14:53:45.256Z,8.13
2018-12-13T14:55:49.047Z,13.57
2018-12-13T14:57:52.751Z,8.75
2018-12-13T14:59:56.481Z,15.25
2018-12-13T15:01:59.542Z,9.57
2018-12-13T15:04:03.219Z,14.60
2018-12-13T15:06:06.147Z,11.80
2018-12-13T15:08:09.101Z,14.50
2018-12-13T15:10:12.091Z,14.98
2018-12-13T15:12:15.771Z,11.73
2018-12-13T15:14:18.831Z,10.27
2018-12-13T15:16:21.858Z,12.30
2018-12-13T15:18:25.571Z,14.18
2018-12-13T15:20:28.544Z,11.25
2018-12-13T15:22:32.240Z,16.35
2018-12-13T15:24:35.215Z,15.02
2018-12-13T15:26:38.928Z,14.23
2018-12-13T15:28:42.761Z,9.70
2018-12-13T15:30:45.675Z,18.73
2018-12-13T15:32:48.717Z,13.18
2018-12-13T15:34:51.634Z,13.07
2018-12-13T15:36:54.542Z,10.80
2018-12-13T15:38:58.283Z,15.55
2018-12-13T15:41:01.207Z,14.07
2018-12-13T15:43:04.119Z,11.82
2018-12-13T15:45:07.955Z,12.32
2018-12-13T15:47:10.895Z,12.57
2018-12-13T15:49:14.809Z,17.42
2018-12-13T15:51:18.743Z,13.77
2018-12-13T15:53:21.654Z,15.05
2018-12-13T15:55:25.372Z,13.32
2018-12-13T15:57:28.484Z,17.27
2018-12-13T15:59:32.158Z,14.80
2018-12-13T16:01:35.223Z,13.62
2018-12-13T16:03:38.246Z,13.73
2018-12-13T16:05:41.931Z,17.48
2018-12-13T16:07:44.847Z,11.85
2018-12-13T16:09:48.031Z,12.60
2018-12-13T16:11:50.967Z,10.80
2018-12-13T16:13:53.985Z,11.02
2018-12-13T16:15:57.792Z,14.02
2018-12-13T16:18:01.487Z,19.37
2018-12-13T16:20:05.188Z,12.30
2018-12-13T16:22:09.016Z,14.37
2018-12-13T16:24:11.969Z,13.93
2018-12-13T16:26:15.655Z,12.83
2018-12-13T16:28:18.726Z,15.90
2018-12-13T16:30:21.640Z,18.33
2018-12-13T16:32:25.317Z,17.57
2018-12-13T16:34:28.263Z,22.03
2018-12-13T16:36:31.211Z,13.00
2018-12-13T16:38:34.970Z,28.03
2018-12-13T16:40:38.012Z,30.70
2018-12-13T16:42:40.939Z,23.57
2018-12-13T16:44:43.956Z,15.88
2018-12-13T16:46:47.684Z,17.58
2018-12-13T16:48:50.686Z,15.40
2018-12-13T16:50:53.599Z,14.55
2018-12-13T16:52:56.649Z,20.25
2018-12-13T16:54:59.583Z,14.98
2018-12-13T16:57:03.285Z,15.77
2018-12-13T16:59:07.088Z,13.70
2018-12-13T17:01:10.771Z,14.30
2018-12-13T17:03:26.179Z,12.90
2018-12-13T17:05:29.223Z,16.27
2018-12-13T17:07:32.145Z,15.88
2018-12-13T17:09:35.070Z,12.05
2018-12-13T17:11:38.007Z,13.32
2018-12-13T17:13:41.793Z,19.60
2018-12-13T17:15:45.511Z,17.33
2018-12-13T17:17:49.211Z,24.43
2018-12-13T17:19:52.935Z,17.10
2018-12-13T17:21:56.667Z,12.63
2018-12-13T17:23:59.678Z,18.60
2018-12-13T17:26:03.343Z,11.70
2018-12-13T17:28:06.361Z,10.90
2018-12-13T17:30:10.080Z,13.05
2018-12-13T17:32:12.998Z,10.70
2018-12-13T17:34:15.911Z,15.53
2018-12-13T17:36:18.875Z,10.73
2018-12-13T17:38:22.597Z,19.20
2018-12-13T17:40:24.725Z,12.73
2018-12-13T17:42:27.667Z,18.12
2018-12-13T17:44:30.600Z,14.90
2018-12-13T17:46:33.551Z,21.30
2018-12-13T17:48:36.609Z,13.77
2018-12-13T17:50:40.406Z,14.95
2018-12-13T17:52:44.105Z,13.50
2018-12-13T17:54:47.814Z,17.35
2018-12-13T17:56:50.740Z,12.60
2018-12-13T17:58:54.446Z,12.75
2018-12-13T18:00:57.458Z,12.43
2018-12-13T18:03:01.875Z,20.00
2018-12-13T18:05:05.558Z,19.53
2018-12-13T18:07:08.502Z,13.43
2018-12-13T18:09:11.423Z,15.40
2018-12-13T18:11:14.402Z,12.75
2018-12-13T18:13:17.451Z,19.70
2018-12-13T18:15:20.407Z,20.98
2018-12-13T18:17:23.334Z,17.87
2018-12-13T18:19:26.287Z,15.88
2018-12-13T18:21:29.200Z,14.45
2018-12-13T18:23:32.125Z,9.48
2018-12-13T18:25:35.929Z,12.60
2018-12-13T18:27:39.620Z,27.60
2018-12-13T18:29:43.329Z,14.50
2018-12-13T18:31:47.132Z,11.70
2018-12-13T18:33:51.028Z,18.33
2018-12-13T18:35:54.734Z,13.70
2018-12-13T18:37:58.540Z,17.33
2018-12-13T18:40:02.219Z,14.48
2018-12-13T18:42:05.907Z,15.50
2018-12-13T18:44:08.873Z,14.30
2018-12-13T18:46:11.788Z,19.50
2018-12-13T18:48:15.487Z,10.00
2018-12-13T18:50:18.418Z,11.30
2018-12-13T18:52:21.362Z,16.37
2018-12-13T18:54:25.052Z,11.83
2018-12-13T18:56:28.779Z,10.47
2018-12-13T18:58:31.699Z,11.60
2018-12-13T19:00:34.630Z,12.20
2018-12-13T19:02:38.391Z,14.80
2018-12-13T19:04:41.331Z,18.07
2018-12-13T19:06:45.115Z,12.43
2018-12-13T19:08:48.834Z,15.23
2018-12-13T19:10:51.743Z,15.20
2018-12-13T19:12:54.661Z,13.48
2018-12-13T19:14:57.610Z,13.82
2018-12-13T19:17:00.539Z,15.82
2018-12-13T19:19:04.219Z,13.50
2018-12-13T19:21:08.054Z,15.52
2018-12-13T19:23:10.970Z,13.90
2018-12-13T19:25:13.891Z,19.75
2018-12-13T19:27:16.942Z,13.40
2018-12-13T19:29:19.858Z,12.40
2018-12-13T19:31:22.770Z,15.10
2018-12-13T19:33:25.826Z,15.07
2018-12-13T19:35:29.504Z,12.13
2018-12-13T19:37:32.421Z,15.55
2018-12-13T19:39:36.134Z,16.17
2018-12-13T19:41:39.058Z,20.48
2018-12-13T19:43:41.981Z,12.20
2018-12-13T19:45:44.934Z,10.73
2018-12-13T19:47:49.369Z,12.10
2018-12-13T19:49:52.282Z,12.67
2018-12-13T19:51:56.087Z,23.75
2018-12-13T19:53:59.007Z,12.65
2018-12-13T19:56:02.099Z,15.15
2018-12-13T19:58:05.047Z,14.35
2018-12-13T20:00:07.971Z,16.90
2018-12-13T20:02:10.908Z,15.27
2018-12-13T20:04:13.983Z,15.18
2018-12-13T20:06:16.910Z,14.80
2018-12-13T20:08:19.843Z,14.40
2018-12-13T20:10:22.883Z,19.50
2018-12-13T20:12:25.803Z,12.02
2018-12-13T20:14:28.724Z,16.75
2018-12-13T20:16:31.694Z,11.93
2018-12-13T20:18:34.607Z,11.75
2018-12-13T20:20:37.523Z,16.42
2018-12-13T20:22:41.236Z,20.07
2018-12-13T20:24:44.286Z,11.75
2018-12-13T20:26:47.546Z,17.50
2018-12-13T20:28:51.397Z,14.60
2018-12-13T20:30:55.074Z,15.57
2018-12-13T20:32:59.502Z,18.27
2018-12-13T20:35:04.598Z,16.47
2018-12-13T20:37:06.251Z,17.40
2018-12-13T20:39:09.231Z,22.67
2018-12-13T20:41:12.388Z,15.25
2018-12-13T20:43:15.303Z,13.02
2018-12-13T20:45:18.334Z,15.10
2018-12-13T20:47:22.064Z,15.07
2018-12-13T20:49:24.987Z,14.02
2018-12-13T20:51:27.927Z,18.25
2018-12-13T20:53:30.990Z,19.58
2018-12-13T20:55:34.810Z,15.80
2018-12-13T20:57:37.831Z,12.75
2018-12-13T20:59:40.955Z,12.10
2018-12-13T21:01:44.877Z,14.95
2018-12-13T21:03:47.791Z,16.17
2018-12-13T21:05:50.735Z,15.60
2018-12-13T21:07:54.581Z,14.80
2018-12-13T21:09:57.611Z,13.15
2018-12-13T21:12:01.414Z,13.05
2018-12-13T21:14:05.104Z,14.77
2018-12-13T21:16:08.057Z,14.25
2018-12-13T21:18:11.159Z,16.92
2018-12-13T21:20:14.080Z,13.82
2018-12-13T21:22:17.030Z,12.05
2018-12-13T21:24:20.819Z,15.77
2018-12-13T21:26:23.835Z,16.92
2018-12-13T21:28:27.633Z,16.10
2018-12-13T21:30:31.344Z,14.38
2018-12-13T21:32:34.262Z,11.45
2018-12-13T21:34:37.197Z,15.07
2018-12-13T21:36:41.105Z,12.10
2018-12-13T21:38:44.031Z,16.83
2018-12-13T21:40:46.998Z,19.08
2018-12-13T21:42:50.069Z,14.55
2018-12-13T21:44:53.002Z,11.43
2018-12-13T21:46:56.018Z,15.25
2018-12-13T21:48:59.923Z,12.98
2018-12-13T21:51:03.620Z,15.68
2018-12-13T21:53:07.317Z,14.77
2018-12-13T21:55:11.103Z,16.27
2018-12-13T21:57:14.108Z,17.40
2018-12-13T21:59:17.795Z,20.15
2018-12-13T22:01:21.695Z,17.42
2018-12-13T22:03:24.620Z,17.33
2018-12-13T22:05:27.559Z,17.45
2018-12-13T22:07:30.537Z,18.58
2018-12-13T22:09:33.458Z,16.92
2018-12-13T22:11:36.427Z,16.83
2018-12-13T22:13:40.151Z,14.50
2018-12-13T22:15:43.067Z,20.87
2018-12-13T22:17:46.010Z,15.13
2018-12-13T22:19:48.963Z,16.25
2018-12-13T22:21:52.651Z,18.05
2018-12-13T22:23:56.397Z,15.00
2018-12-13T22:25:59.380Z,20.10
2018-12-13T22:28:02.437Z,15.32
2018-12-13T22:30:06.255Z,17.92
2018-12-13T22:32:10.023Z,18.42
2018-12-13T22:34:13.265Z,16.67
2018-12-13T22:36:15.977Z,18.40
2018-12-13T22:38:18.916Z,19.80
2018-12-13T22:40:21.836Z,22.33
2018-12-13T22:42:24.764Z,13.97
2018-12-13T22:44:28.788Z,16.02
2018-12-13T22:46:32.370Z,12.65
2018-12-13T22:48:35.303Z,15.35
2018-12-13T22:50:38.428Z,18.67
2018-12-13T22:52:41.275Z,15.85
2018-12-13T22:54:44.974Z,15.63
2018-12-13T22:56:47.932Z,17.98
2018-12-13T22:58:50.846Z,14.05
2018-12-13T23:00:53.765Z,18.80
2018-12-13T23:02:56.802Z,13.60
2018-12-13T23:04:59.730Z,18.60
2018-12-13T23:07:02.666Z,15.93
2018-12-13T23:09:05.788Z,17.35
2018-12-13T23:11:09.499Z,15.40
2018-12-13T23:13:13.177Z,12.90
2018-12-13T23:15:16.127Z,15.50
2018-12-13T23:17:19.150Z,16.70
2018-12-13T23:19:22.833Z,24.10
2018-12-13T23:21:25.787Z,15.82
2018-12-13T23:23:28.693Z,19.80
2018-12-13T23:25:31.612Z,14.43
2018-12-13T23:27:34.668Z,15.70
2018-12-13T23:29:37.575Z,17.23
2018-12-13T23:31:40.493Z,17.40
2018-12-13T23:33:43.628Z,15.87
2018-12-13T23:35:47.302Z,13.83
2018-12-13T23:37:50.239Z,13.50
2018-12-13T23:39:54.240Z,14.15
2018-12-13T23:41:57.155Z,16.70
2018-12-13T23:44:00.842Z,18.45
2018-12-13T23:46:03.943Z,15.60
2018-12-13T23:48:06.969Z,18.37
2018-12-13T23:50:10.655Z,16.45
2018-12-13T23:52:14.426Z,17.00
2018-12-13T23:54:17.349Z,21.10
2018-12-13T23:56:21.153Z,20.80
2018-12-13T23:58:24.886Z,19.00
